createdAt,value
2018-09-29T00:00:20.803Z,96219.40
2018-09-29T00:02:49.173Z,96209.92
2018-09-29T00:05:17.625Z,96223.70
2018-09-29T00:07:46.002Z,96226.46
2018-09-29T00:10:14.394Z,96229.67
2018-09-29T00:12:42.818Z,96230.23
2018-09-29T00:15:11.203Z,96238.55
2018-09-29T00:17:39.613Z,96243.41
2018-09-29T00:20:08.024Z,96241.63
2018-09-29T00:22:36.434Z,96239.14
2018-09-29T00:25:04.925Z,96240.31
2018-09-29T00:27:33.330Z,96242.33
2018-09-29T00:30:01.938Z,96230.94
2018-09-29T00:32:30.871Z,96229.91
2018-09-29T00:34:59.302Z,96232.42
2018-09-29T00:37:27.714Z,96226.22
2018-09-29T00:39:56.124Z,96236.34
2018-09-29T00:42:24.569Z,96240.77
2018-09-29T00:44:52.997Z,96248.23
2018-09-29T00:47:21.429Z,96251.22
2018-09-29T00:49:49.826Z,96260.36
2018-09-29T00:52:18.265Z,96259.05
2018-09-29T00:54:46.702Z,96251.72
2018-09-29T00:57:15.170Z,96252.29
2018-09-29T00:59:43.590Z,96255.73
2018-09-29T01:02:12.066Z,96258.25
2018-09-29T01:04:40.498Z,96257.05
2018-09-29T01:07:08.891Z,96253.63
2018-09-29T01:09:37.313Z,96253.53
2018-09-29T01:12:05.730Z,96256.37
2018-09-29T01:14:34.390Z,96255.66
2018-09-29T01:17:02.905Z,96262.40
2018-09-29T01:19:31.341Z,96273.95
2018-09-29T01:21:59.759Z,96266.14
2018-09-29T01:24:29.281Z,96264.83
2018-09-29T01:26:57.694Z,96269.91
2018-09-29T01:29:26.114Z,96267.67
2018-09-29T01:31:54.511Z,96265.89
2018-09-29T01:34:22.969Z,96265.32
2018-09-29T01:36:51.370Z,96260.23
2018-09-29T01:39:19.798Z,96260.34
2018-09-29T01:41:48.205Z,96255.94
2018-09-29T01:44:16.633Z,96253.56
2018-09-29T01:46:45.018Z,96255.37
2018-09-29T01:49:13.430Z,96256.67
2018-09-29T01:51:41.841Z,96256.20
2018-09-29T01:54:10.295Z,96255.59
2018-09-29T01:56:38.754Z,96255.95
2018-09-29T01:59:07.220Z,96250.27
2018-09-29T02:01:35.645Z,96253.33
2018-09-29T02:04:04.066Z,96247.89
2018-09-29T02:06:32.502Z,96250.01
2018-09-29T02:09:00.901Z,96238.86
2018-09-29T02:11:29.341Z,96241.00
2018-09-29T02:13:57.729Z,96238.28
2018-09-29T02:16:26.443Z,96233.80
2018-09-29T02:18:54.857Z,96236.73
2018-09-29T02:21:23.301Z,96229.38
2018-09-29T02:23:51.697Z,96230.20
2018-09-29T02:26:20.162Z,96234.26
2018-09-29T02:28:48.634Z,96237.06
2018-09-29T02:31:17.013Z,96234.81
2018-09-29T02:33:45.407Z,96232.83
2018-09-29T02:36:13.866Z,96234.35
2018-09-29T02:38:42.286Z,96232.58
2018-09-29T02:41:11.154Z,96217.16
2018-09-29T02:43:39.546Z,96228.55
2018-09-29T02:46:07.994Z,96230.08
2018-09-29T02:48:36.390Z,96226.75
2018-09-29T02:51:04.922Z,96221.31
2018-09-29T02:53:33.325Z,96214.67
2018-09-29T02:56:01.990Z,96202.92
2018-09-29T02:58:30.445Z,96200.31
2018-09-29T03:00:58.858Z,96195.58
2018-09-29T03:03:27.310Z,96197.11
2018-09-29T03:05:55.727Z,96198.06
2018-09-29T03:08:24.142Z,96203.07
2018-09-29T03:10:52.538Z,96204.84
2018-09-29T03:13:21.258Z,96202.45
2018-09-29T03:15:49.737Z,96209.81
2018-09-29T03:18:18.183Z,96210.75
2018-09-29T03:20:46.573Z,96221.06
2018-09-29T03:23:15.010Z,96213.61
2018-09-29T03:25:43.385Z,96207.09
2018-09-29T03:28:11.837Z,96209.22
2018-09-29T03:30:40.214Z,96210.52
2018-09-29T03:33:08.626Z,96215.27
2018-09-29T03:35:37.005Z,96213.00
2018-09-29T03:38:05.650Z,96211.11
2018-09-29T03:40:34.021Z,96218.22
2018-09-29T03:43:02.955Z,96210.87
2018-09-29T03:45:31.397Z,96215.97
2018-09-29T03:47:59.774Z,96213.95
2018-09-29T03:50:28.193Z,96217.16
2018-09-29T03:52:56.570Z,96215.97
2018-09-29T03:55:25.018Z,96219.63
2018-09-29T03:57:53.392Z,96222.59
2018-09-29T04:00:21.823Z,96223.98
2018-09-29T04:02:50.186Z,96224.33
2018-09-29T04:05:18.601Z,96227.87
2018-09-29T04:07:46.965Z,96231.45
2018-09-29T04:10:15.357Z,96227.44
2018-09-29T04:12:43.734Z,96231.56
2018-09-29T04:15:12.142Z,96230.86
2018-09-29T04:17:40.518Z,96231.69
2018-09-29T04:20:08.924Z,96234.39
2018-09-29T04:22:37.283Z,96235.11
2018-09-29T04:25:05.741Z,96240.44
2018-09-29T04:27:34.126Z,96237.93
2018-09-29T04:30:02.905Z,96241.63
2018-09-29T04:32:31.306Z,96236.63
2018-09-29T04:34:59.713Z,96238.52
2018-09-29T04:37:28.085Z,96234.61
2018-09-29T04:39:56.567Z,96232.09
2018-09-29T04:42:24.927Z,96236.97
2018-09-29T04:44:53.294Z,96228.66
2018-09-29T04:47:21.714Z,96237.55
2018-09-29T04:49:50.094Z,96232.84
2018-09-29T04:52:18.518Z,96240.66
2018-09-29T04:54:46.881Z,96240.07
2018-09-29T04:57:15.301Z,96245.88
2018-09-29T04:59:43.674Z,96248.69
2018-09-29T05:02:12.101Z,96256.17
2018-09-29T05:04:40.481Z,96248.35
2018-09-29T05:07:08.882Z,96245.16
2018-09-29T05:09:37.321Z,96249.56
2018-09-29T05:12:05.753Z,96246.46
2018-09-29T05:14:34.134Z,96253.69
2018-09-29T05:17:02.977Z,96261.50
2018-09-29T05:19:31.337Z,96270.04
2018-09-29T05:21:59.753Z,96269.33
2018-09-29T05:24:28.131Z,96269.45
2018-09-29T05:26:56.549Z,96268.77
2018-09-29T05:29:24.934Z,96270.04
2018-09-29T05:31:53.305Z,96278.95
2018-09-29T05:34:21.735Z,96278.70
2018-09-29T05:36:50.118Z,96278.57
2018-09-29T05:39:19.710Z,96276.55
2018-09-29T05:41:48.435Z,96277.02
2018-09-29T05:44:17.177Z,96273.82
2018-09-29T05:46:46.352Z,96277.52
2018-09-29T05:49:15.135Z,96268.95
2018-09-29T05:51:44.186Z,96278.91
2018-09-29T05:54:13.225Z,96277.85
2018-09-29T05:56:42.127Z,96284.50
2018-09-29T05:59:13.611Z,96281.64
2018-09-29T06:01:42.126Z,96285.80
2018-09-29T06:04:10.735Z,96286.42
2018-09-29T06:06:39.314Z,96285.21
2018-09-29T06:09:09.177Z,96286.30
2018-09-29T06:11:40.823Z,96286.08
2018-09-29T06:14:15.999Z,96285.37
2018-09-29T06:16:44.668Z,96288.34
2018-09-29T06:19:13.323Z,96286.80
2018-09-29T06:21:43.222Z,96294.74
2018-09-29T06:24:11.723Z,96296.55
2018-09-29T06:26:40.146Z,96308.73
2018-09-29T06:29:08.801Z,96299.98
2018-09-29T06:31:37.355Z,96299.15
2018-09-29T06:34:06.240Z,96301.51
2018-09-29T06:36:55.273Z,96300.58
2018-09-29T06:39:23.758Z,96304.02
2018-09-29T06:41:52.210Z,96303.06
2018-09-29T06:44:20.650Z,96295.27
2018-09-29T06:46:49.134Z,96295.76
2018-09-29T06:49:17.581Z,96300.38
2018-09-29T07:30:06.452Z,96324.41
2018-09-29T07:32:34.974Z,96325.59
2018-09-29T07:35:03.527Z,96323.47
2018-09-29T07:37:32.000Z,96324.05
2018-09-29T07:43:03.761Z,96329.16
2018-09-29T07:45:32.206Z,96330.08
2018-09-29T07:48:00.677Z,96328.55
2018-09-29T07:50:38.055Z,96335.76
2018-09-29T07:53:06.595Z,96337.77
2018-09-29T07:55:35.084Z,96337.17
2018-09-29T07:58:03.588Z,96333.26
2018-09-29T08:00:32.019Z,96336.34
2018-09-29T08:03:01.072Z,96334.77
2018-09-29T08:05:29.491Z,96332.96
2018-09-29T08:16:58.824Z,96339.19
2018-09-29T08:19:28.522Z,96336.33
2018-09-29T08:21:58.213Z,96338.81
2018-09-29T08:24:27.864Z,96330.39
2018-09-29T08:26:57.810Z,96338.45
2018-09-29T08:29:27.617Z,96329.53
2018-09-29T08:31:57.384Z,96334.52
2018-09-29T08:34:27.163Z,96334.23
2018-09-29T08:36:56.876Z,96338.47
2018-09-29T08:39:29.187Z,96329.30
2018-09-29T08:41:59.596Z,96319.86
2018-09-29T08:44:29.209Z,96330.83
2018-09-29T08:46:58.975Z,96323.96
2018-09-29T08:49:29.173Z,96327.30
2018-09-29T08:51:58.893Z,96331.22
2018-09-29T08:54:28.897Z,96333.14
2018-09-29T08:56:58.751Z,96326.45
2018-09-29T08:59:28.416Z,96322.26
2018-09-29T09:01:58.937Z,96321.50
2018-09-29T09:04:28.709Z,96324.41
2018-09-29T09:06:58.572Z,96319.84
2018-09-29T09:09:28.584Z,96313.64
2018-09-29T09:11:58.136Z,96304.44
2018-09-29T09:14:34.552Z,96307.39
2018-09-29T09:17:04.259Z,96295.34
2018-09-29T09:19:34.063Z,96297.37
2018-09-29T09:22:03.932Z,96298.76
2018-09-29T09:33:10.318Z,96290.09
2018-09-29T09:35:38.889Z,96290.94
2018-09-29T09:38:07.369Z,96291.21
2018-09-29T09:40:35.996Z,96284.16
2018-09-29T11:22:16.098Z,96244.74
2018-09-29T11:24:46.939Z,96252.15
2018-09-29T11:27:15.727Z,96239.03
2018-09-29T11:56:57.495Z,96209.90
2018-09-29T11:59:26.061Z,96210.80
2018-09-29T12:01:54.576Z,96207.84
2018-09-29T12:04:22.969Z,96206.18
2018-09-29T12:06:51.472Z,96199.69
2018-09-29T12:09:19.881Z,96198.99
2018-09-29T12:11:48.345Z,96195.53
2018-09-29T12:14:16.765Z,96188.41
2018-09-29T12:16:45.711Z,96189.94
2018-09-29T12:19:14.771Z,96185.67
2018-09-29T12:21:44.061Z,96182.16
2018-09-29T12:24:12.644Z,96181.15
2018-09-29T12:26:41.199Z,96175.19
2018-09-29T12:29:09.696Z,96173.04
2018-09-29T12:31:38.141Z,96172.30
2018-09-29T12:34:06.576Z,96169.58
2018-09-29T12:36:35.021Z,96169.30
2018-09-29T12:39:12.090Z,96164.20
2018-09-29T12:41:40.517Z,96171.92
2018-09-29T12:44:09.045Z,96164.88
2018-09-29T12:46:37.453Z,96166.53
2018-09-29T12:49:06.009Z,96165.22
2018-09-29T12:51:34.483Z,96160.38
2018-09-29T12:54:02.948Z,96162.04
2018-09-29T12:56:31.415Z,96147.28
2018-09-29T12:58:59.905Z,96145.25
2018-09-29T13:01:28.249Z,96145.34
2018-09-29T13:03:56.772Z,96142.19
2018-09-29T13:06:25.176Z,96139.13
2018-09-29T13:08:53.617Z,96129.36
2018-09-29T13:11:22.068Z,96124.36
2018-09-29T13:13:50.512Z,96121.70
2018-09-29T13:16:18.918Z,96126.59
2018-09-29T13:18:47.349Z,96111.88
2018-09-29T13:21:15.759Z,96110.83
2018-09-29T13:23:44.234Z,96109.47
2018-09-29T13:26:12.672Z,96098.33
2018-09-29T13:28:41.100Z,96109.33
2018-09-29T13:31:09.603Z,96105.84
2018-09-29T13:33:38.073Z,96100.33
2018-09-29T13:36:06.535Z,96099.73
2018-09-29T13:38:34.999Z,96103.27
2018-09-29T13:41:04.274Z,96095.16
2018-09-29T13:43:32.770Z,96094.84
2018-09-29T13:46:01.330Z,96086.49
2018-09-29T13:48:29.637Z,96091.06
2018-09-29T13:50:58.445Z,96079.55
2018-09-29T13:53:26.869Z,96079.91
2018-09-29T13:55:55.434Z,96076.30
2018-09-29T13:58:24.001Z,96075.20
2018-09-29T14:00:53.026Z,96077.45
2018-09-29T14:03:21.481Z,96072.30
2018-09-29T14:05:50.016Z,96073.34
2018-09-29T14:08:18.611Z,96068.80
2018-09-29T14:10:47.413Z,96055.70
2018-09-29T14:13:15.826Z,96053.91
2018-09-29T14:15:44.338Z,96054.08
2018-09-29T14:18:12.874Z,96050.97
2018-09-29T14:20:41.509Z,96050.97
2018-09-29T14:23:10.025Z,96040.53
2018-09-29T14:25:38.549Z,96043.14
2018-09-29T14:28:07.094Z,96040.62
2018-09-29T14:30:35.542Z,96031.68
2018-09-29T14:33:04.093Z,96029.87
2018-09-29T14:35:32.499Z,96027.08
2018-09-29T14:38:01.042Z,96025.39
2018-09-29T14:40:29.893Z,96023.45
2018-09-29T14:42:58.342Z,96024.55
2018-09-29T14:45:26.766Z,96018.50
2018-09-29T14:47:55.238Z,96014.45
2018-09-29T14:50:23.694Z,96020.92
2018-09-29T14:52:52.317Z,96010.73
2018-09-29T14:55:21.369Z,96013.57
2018-09-29T14:57:49.941Z,96013.16
2018-09-29T15:00:18.366Z,96010.98
2018-09-29T15:02:46.870Z,95999.81
2018-09-29T15:05:16.699Z,95997.31
2018-09-29T15:07:45.227Z,95998.69
2018-09-29T15:10:13.825Z,95989.64
2018-09-29T15:12:42.343Z,95982.88
2018-09-29T15:15:10.906Z,95982.30
2018-09-29T15:17:39.444Z,95984.47
2018-09-29T15:20:07.974Z,95978.80
2018-09-29T15:22:38.522Z,95980.27
2018-09-29T15:25:07.028Z,95978.67
2018-09-29T15:27:35.655Z,95975.08
2018-09-29T15:30:04.318Z,95978.68
2018-09-29T15:32:32.746Z,95977.16
2018-09-29T15:35:01.319Z,95978.35
2018-09-29T15:37:29.788Z,95981.27
2018-09-29T15:39:58.265Z,95976.80
2018-09-29T15:42:26.711Z,95978.23
2018-09-29T15:44:55.224Z,95974.03
2018-09-29T15:47:23.692Z,95977.27
2018-09-29T15:49:52.166Z,95970.55
2018-09-29T15:52:21.426Z,95970.55
2018-09-29T15:54:49.890Z,95969.58
2018-09-29T15:57:18.458Z,95977.52
2018-09-29T15:59:46.945Z,95970.58
2018-09-29T16:02:15.383Z,95974.29
2018-09-29T16:04:44.269Z,95973.84
2018-09-29T16:07:13.242Z,95975.67
2018-09-29T16:09:42.773Z,95982.50
2018-09-29T16:12:11.186Z,95983.34
2018-09-29T16:14:39.652Z,95991.32
2018-09-29T16:17:08.101Z,95994.42
2018-09-29T16:19:36.534Z,95995.11
2018-09-29T16:22:05.034Z,95992.09
2018-09-29T16:24:33.443Z,95992.63
2018-09-29T16:27:01.881Z,95999.36
2018-09-29T16:29:30.338Z,95998.05
2018-09-29T16:31:58.888Z,95993.89
2018-09-29T16:34:27.878Z,96007.33
2018-09-29T16:36:56.974Z,96007.17
2018-09-29T16:39:25.406Z,96003.39
2018-09-29T16:41:53.898Z,96010.22
2018-09-29T16:44:22.334Z,96011.47
2018-09-29T16:46:50.803Z,96012.73
2018-09-29T16:49:19.224Z,96015.77
2018-09-29T16:51:47.726Z,96016.37
2018-09-29T16:54:16.182Z,96014.66
2018-09-29T16:56:44.711Z,96018.04
2018-09-29T16:59:13.232Z,96013.73
2018-09-29T17:01:41.761Z,96019.38
2018-09-29T17:04:10.339Z,96022.44
2018-09-29T17:06:38.791Z,96022.50
2018-09-29T17:09:11.318Z,96021.89
2018-09-29T17:11:40.362Z,96017.77
2018-09-29T17:14:08.946Z,96013.26
2018-09-29T17:16:37.562Z,96022.37
2018-09-29T17:19:06.930Z,96017.98
2018-09-29T17:21:36.125Z,96022.75
2018-09-29T17:24:04.821Z,96018.83
2018-09-29T17:26:33.526Z,96020.44
2018-09-29T17:29:02.841Z,96018.36
2018-09-29T17:31:31.429Z,96017.52
2018-09-29T17:34:00.092Z,96015.81
2018-09-29T17:36:28.546Z,96014.14
2018-09-29T17:38:57.367Z,96009.17
2018-09-29T17:41:27.424Z,96011.47
2018-09-29T17:43:55.929Z,96014.55
2018-09-29T17:46:24.387Z,96010.30
2018-09-29T17:48:52.881Z,96012.95
2018-09-29T17:51:21.308Z,96014.15
2018-09-29T17:53:49.831Z,96012.20
2018-09-29T17:56:18.700Z,96013.59
2018-09-29T17:58:47.271Z,96010.40
2018-09-29T18:01:15.773Z,96009.45
2018-09-29T18:03:44.188Z,96011.78
2018-09-29T18:06:13.024Z,96014.99
2018-09-29T18:08:41.996Z,96014.52
2018-09-29T18:11:10.488Z,96011.07
2018-09-29T18:13:39.038Z,96009.00
2018-09-29T18:16:07.613Z,96011.55
2018-09-29T18:18:36.150Z,96004.24
2018-09-29T18:21:05.358Z,96005.70
2018-09-29T18:23:33.802Z,96006.42
2018-09-29T18:26:02.438Z,95994.58
2018-09-29T18:28:30.862Z,95998.94
2018-09-29T18:30:59.319Z,95994.69
2018-09-29T18:33:27.774Z,95994.14
2018-09-29T18:35:56.337Z,95990.22
2018-09-29T18:38:24.685Z,95990.11
2018-09-29T18:40:53.137Z,95993.82
2018-09-29T18:43:21.561Z,95993.60
2018-09-29T18:45:50.175Z,95991.13
2018-09-29T18:48:18.594Z,95994.79
2018-09-29T18:50:47.067Z,95992.34
2018-09-29T18:53:16.721Z,95990.13
2018-09-29T18:55:45.808Z,95982.82
2018-09-29T18:58:14.533Z,95981.07
2018-09-29T19:00:43.243Z,95983.58
2018-09-29T19:03:11.747Z,95984.37
2018-09-29T19:05:40.236Z,95982.47
2018-09-29T19:08:09.029Z,95987.58
2018-09-29T19:10:37.515Z,95983.83
2018-09-29T19:13:06.037Z,95980.91
2018-09-29T19:15:34.582Z,95980.94
2018-09-29T19:18:03.555Z,95981.30
2018-09-29T19:20:32.010Z,95975.30
2018-09-29T19:23:00.603Z,95982.20
2018-09-29T19:25:29.115Z,95975.92
2018-09-29T19:27:57.595Z,95978.76
2018-09-29T19:30:26.051Z,95980.97
2018-09-29T19:32:54.575Z,95982.70
2018-09-29T19:35:23.084Z,95976.13
2018-09-29T19:37:51.579Z,95976.78
2018-09-29T19:40:20.062Z,95975.78
2018-09-29T19:42:48.698Z,95970.44
2018-09-29T19:45:17.220Z,95975.05
2018-09-29T19:47:45.807Z,95974.91
2018-09-29T19:50:14.423Z,95973.67
2018-09-29T19:52:43.077Z,95966.22
2018-09-29T19:55:11.851Z,95960.38
2018-09-29T19:57:42.946Z,95961.37
2018-09-29T20:00:11.593Z,95963.78
2018-09-29T20:02:40.945Z,95964.53
2018-09-29T20:05:10.338Z,95962.63
2018-09-29T20:07:39.409Z,95967.66
2018-09-29T20:10:11.840Z,95962.58
2018-09-29T20:12:40.326Z,95963.46
2018-09-29T20:15:08.894Z,95964.97
2018-09-29T20:17:37.359Z,95963.14
2018-09-29T20:20:06.956Z,95958.91
2018-09-29T20:22:35.401Z,95964.64
2018-09-29T20:25:04.363Z,95959.05
2018-09-29T20:27:32.799Z,95956.91
2018-09-29T20:30:01.276Z,95954.30
2018-09-29T20:32:29.719Z,95951.22
2018-09-29T20:34:58.207Z,95957.41
2018-09-29T20:37:26.635Z,95950.89
2018-09-29T20:39:55.123Z,95960.02
2018-09-29T20:42:23.642Z,95956.94
2018-09-29T20:44:52.113Z,95954.84
2018-09-29T20:47:20.687Z,95955.82
2018-09-29T20:49:49.210Z,95948.50
2018-09-29T20:52:17.776Z,95943.05
2018-09-29T20:54:46.264Z,95946.49
2018-09-29T20:57:14.904Z,95941.28
2018-09-29T20:59:43.427Z,95942.95
2018-09-29T21:02:13.240Z,95940.95
2018-09-29T21:04:41.667Z,95941.28
2018-09-29T21:07:10.165Z,95944.05
2018-09-29T21:09:38.593Z,95937.56
2018-09-29T21:12:07.184Z,95934.36
2018-09-29T21:14:35.675Z,95941.11
2018-09-29T21:17:05.438Z,95934.62
2018-09-29T21:19:34.029Z,95925.88
2018-09-29T21:22:02.943Z,95928.12
2018-09-29T21:24:31.407Z,95927.29
2018-09-29T21:26:59.851Z,95920.91
2018-09-29T21:29:28.287Z,95915.95
2018-09-29T21:31:56.766Z,95917.70
2018-09-29T21:34:25.238Z,95919.09
2018-09-29T21:36:53.715Z,95913.31
2018-09-29T21:39:22.187Z,95920.19
2018-09-29T21:41:50.636Z,95914.73
2018-09-29T21:44:19.118Z,95934.50
2018-09-29T21:46:47.551Z,95925.75
2018-09-29T21:49:16.028Z,95930.12
2018-09-29T21:51:44.443Z,95931.91
2018-09-29T21:54:12.898Z,95932.27
2018-09-29T21:56:41.422Z,95929.78
2018-09-29T21:59:09.888Z,95927.76
2018-09-29T22:01:38.314Z,95926.11
2018-09-29T22:04:06.799Z,95916.75
2018-09-29T22:06:35.235Z,95919.12
2018-09-29T22:09:04.011Z,95917.11
2018-09-29T22:11:32.420Z,95909.42
2018-09-29T22:14:00.932Z,95909.20
2018-09-29T22:16:29.337Z,95903.40
2018-09-29T22:18:57.749Z,95898.31
2018-09-29T22:21:26.206Z,95899.38
2018-09-29T22:23:54.604Z,95895.11
2018-09-29T22:26:23.034Z,95891.45
2018-09-29T22:28:51.460Z,95896.30
2018-09-29T22:31:19.913Z,95891.22
2018-09-29T22:33:48.313Z,95895.00
2018-09-29T22:36:16.753Z,95892.52
2018-09-29T22:38:45.179Z,95893.83
2018-09-29T22:41:13.682Z,95881.05
2018-09-29T22:43:44.725Z,95886.35
2018-09-29T22:46:13.381Z,95885.18
2018-09-29T22:48:41.813Z,95883.27
2018-09-29T22:51:10.406Z,95883.05
2018-09-29T22:53:38.799Z,95880.80
2018-09-29T22:56:07.413Z,95877.13
2018-09-29T22:58:35.937Z,95875.60
2018-09-29T23:01:04.402Z,95875.01
2018-09-29T23:03:32.882Z,95870.62
2018-09-29T23:06:01.978Z,95868.85
2018-09-29T23:08:30.458Z,95866.84
2018-09-29T23:10:58.895Z,95870.48
2018-09-29T23:13:27.334Z,95863.04
2018-09-29T23:15:55.751Z,95856.89
2018-09-29T23:18:24.229Z,95857.71
2018-09-29T23:20:52.674Z,95858.30
2018-09-29T23:23:21.143Z,95858.98
2018-09-29T23:25:49.598Z,95855.36
2018-09-29T23:28:18.110Z,95852.98
2018-09-29T23:30:46.559Z,95859.83
2018-09-29T23:33:15.065Z,95857.94
2018-09-29T23:35:43.469Z,95861.23
2018-09-29T23:55:28.703Z,95844.82
2018-09-29T23:57:57.559Z,95847.61
